sensor_id;sensor_type;location;lat;lon;timestamp;pressure;altitude;pressure_sealevel;temperature;humidity
15694;BME280;7947;48.834;9.132;2022-12-11T00:02:48;97600.56;;;-1.53;82.29
15694;BME280;7947;48.834;9.132;2022-12-11T00:05:51;97593.91;;;-1.55;82.28
15694;BME280;7947;48.834;9.132;2022-12-11T00:08:54;97590.47;;;-1.56;82.42
15694;BME280;7947;48.834;9.132;2022-12-11T00:11:56;97594.28;;;-1.45;84.73
15694;BME280;7947;48.834;9.132;2022-12-11T00:14:59;97586.38;;;-1.45;84.91
15694;BME280;7947;48.834;9.132;2022-12-11T00:18:05;97593.63;;;-1.41;84.98
15694;BME280;7947;48.834;9.132;2022-12-11T00:21:11;97590.38;;;-1.36;85.19
15694;BME280;7947;48.834;9.132;2022-12-11T00:24:14;97588.31;;;-1.34;85.77
15694;BME280;7947;48.834;9.132;2022-12-11T00:27:17;97588.69;;;-1.31;86.44
15694;BME280;7947;48.834;9.132;2022-12-11T00:30:20;97592.25;;;-1.19;87.01
15694;BME280;7947;48.834;9.132;2022-12-11T00:33:25;97597.47;;;-1.12;85.97
15694;BME280;7947;48.834;9.132;2022-12-11T00:36:28;97592.41;;;-1.14;86.25
15694;BME280;7947;48.834;9.132;2022-12-11T00:39:31;97582.81;;;-1.02;87.65
15694;BME280;7947;48.834;9.132;2022-12-11T00:42:33;97582.47;;;-0.87;87.56
15694;BME280;7947;48.834;9.132;2022-12-11T00:45:36;97581.56;;;-0.74;87.18
15694;BME280;7947;48.834;9.132;2022-12-11T00:48:40;97582.13;;;-0.66;87.75
15694;BME280;7947;48.834;9.132;2022-12-11T00:51:43;97583.75;;;-0.71;87.49
15694;BME280;7947;48.834;9.132;2022-12-11T00:54:46;97586.84;;;-0.74;88.24
15694;BME280;7947;48.834;9.132;2022-12-11T00:57:50;97591.25;;;-0.68;87.73
15694;BME280;7947;48.834;9.132;2022-12-11T01:00:52;97587.53;;;-0.61;87.84
15694;BME280;7947;48.834;9.132;2022-12-11T01:03:56;97593.28;;;-0.70;87.22
15694;BME280;7947;48.834;9.132;2022-12-11T01:06:59;97599.59;;;-0.53;87.31
15694;BME280;7947;48.834;9.132;2022-12-11T01:10:03;97598.94;;;-0.49;87.11
15694;BME280;7947;48.834;9.132;2022-12-11T01:13:24;97601.13;;;-0.46;87.44
15694;BME280;7947;48.834;9.132;2022-12-11T01:16:26;97607.94;;;-0.38;87.44
15694;BME280;7947;48.834;9.132;2022-12-11T01:19:31;97613.66;;;-0.41;88.41
15694;BME280;7947;48.834;9.132;2022-12-11T01:22:34;97613.44;;;-0.40;88.09
15694;BME280;7947;48.834;9.132;2022-12-11T01:25:36;97612.34;;;-0.32;88.05
15694;BME280;7947;48.834;9.132;2022-12-11T01:28:40;97616.97;;;-0.28;88.56
15694;BME280;7947;48.834;9.132;2022-12-11T01:31:43;97619.59;;;-0.28;89.25
15694;BME280;7947;48.834;9.132;2022-12-11T01:34:47;97610.06;;;-0.29;88.56
15694;BME280;7947;48.834;9.132;2022-12-11T01:37:49;97614.34;;;-0.28;88.85
15694;BME280;7947;48.834;9.132;2022-12-11T01:40:52;97613.16;;;-0.32;88.47
15694;BME280;7947;48.834;9.132;2022-12-11T01:43:59;97614.38;;;-0.34;89.13
15694;BME280;7947;48.834;9.132;2022-12-11T01:47:02;97611.41;;;-0.20;88.49
15694;BME280;7947;48.834;9.132;2022-12-11T01:50:07;97613.47;;;-0.22;87.77
15694;BME280;7947;48.834;9.132;2022-12-11T01:53:14;97625.59;;;-0.21;88.14
15694;BME280;7947;48.834;9.132;2022-12-11T01:56:18;97632.50;;;-0.20;88.38
15694;BME280;7947;48.834;9.132;2022-12-11T01:59:23;97622.97;;;-0.21;88.11
15694;BME280;7947;48.834;9.132;2022-12-11T02:02:29;97625.69;;;-0.27;88.48
15694;BME280;7947;48.834;9.132;2022-12-11T02:05:33;97628.50;;;-0.29;88.50
15694;BME280;7947;48.834;9.132;2022-12-11T02:08:36;97629.91;;;-0.26;88.44
15694;BME280;7947;48.834;9.132;2022-12-11T02:11:48;97632.84;;;-0.16;88.23
15694;BME280;7947;48.834;9.132;2022-12-11T02:14:58;97632.50;;;-0.20;88.15
15694;BME280;7947;48.834;9.132;2022-12-11T02:18:14;97633.94;;;-0.24;88.21
15694;BME280;7947;48.834;9.132;2022-12-11T02:21:24;97639.00;;;-0.22;87.61
15694;BME280;7947;48.834;9.132;2022-12-11T02:24:40;97630.06;;;-0.21;87.89
15694;BME280;7947;48.834;9.132;2022-12-11T02:27:52;97625.22;;;-0.24;87.64
15694;BME280;7947;48.834;9.132;2022-12-11T02:31:02;97618.50;;;-0.20;87.31
15694;BME280;7947;48.834;9.132;2022-12-11T02:34:09;97617.88;;;-0.16;87.75
15694;BME280;7947;48.834;9.132;2022-12-11T02:37:18;97617.41;;;-0.13;88.39
15694;BME280;7947;48.834;9.132;2022-12-11T02:40:26;97625.03;;;-0.05;87.90
15694;BME280;7947;48.834;9.132;2022-12-11T02:43:30;97625.25;;;-0.06;87.37
15694;BME280;7947;48.834;9.132;2022-12-11T02:46:36;97626.78;;;-0.17;87.78
15694;BME280;7947;48.834;9.132;2022-12-11T02:49:41;97629.53;;;-0.12;88.33
15694;BME280;7947;48.834;9.132;2022-12-11T02:52:47;97626.91;;;-0.12;89.02
15694;BME280;7947;48.834;9.132;2022-12-11T02:55:57;97629.72;;;-0.07;88.86
15694;BME280;7947;48.834;9.132;2022-12-11T02:59:05;97624.75;;;0.04;88.85
15694;BME280;7947;48.834;9.132;2022-12-11T03:02:12;97623.94;;;0.03;89.02
15694;BME280;7947;48.834;9.132;2022-12-11T03:05:16;97624.28;;;0.07;89.47
15694;BME280;7947;48.834;9.132;2022-12-11T03:08:19;97623.47;;;0.06;89.38
15694;BME280;7947;48.834;9.132;2022-12-11T03:11:22;97618.59;;;0.10;89.42
15694;BME280;7947;48.834;9.132;2022-12-11T03:14:25;97615.13;;;0.09;89.04
15694;BME280;7947;48.834;9.132;2022-12-11T03:17:33;97622.81;;;0.11;89.67
15694;BME280;7947;48.834;9.132;2022-12-11T03:20:40;97624.06;;;0.08;89.00
15694;BME280;7947;48.834;9.132;2022-12-11T03:23:49;97615.94;;;0.10;89.46
15694;BME280;7947;48.834;9.132;2022-12-11T03:26:56;97617.31;;;0.12;89.33
15694;BME280;7947;48.834;9.132;2022-12-11T03:30:05;97625.31;;;0.06;88.62
15694;BME280;7947;48.834;9.132;2022-12-11T03:33:10;97622.31;;;0.02;88.53
15694;BME280;7947;48.834;9.132;2022-12-11T03:36:19;97623.56;;;-0.01;89.07
15694;BME280;7947;48.834;9.132;2022-12-11T03:39:26;97619.53;;;-0.03;88.65
15694;BME280;7947;48.834;9.132;2022-12-11T03:42:32;97623.22;;;-0.04;88.58
15694;BME280;7947;48.834;9.132;2022-12-11T03:45:37;97627.66;;;-0.05;88.94
15694;BME280;7947;48.834;9.132;2022-12-11T03:48:43;97623.22;;;-0.04;88.88
15694;BME280;7947;48.834;9.132;2022-12-11T03:51:49;97626.25;;;-0.07;88.02
15694;BME280;7947;48.834;9.132;2022-12-11T03:54:56;97618.00;;;-0.11;88.58
15694;BME280;7947;48.834;9.132;2022-12-11T03:57:59;97621.56;;;-0.23;88.33
15694;BME280;7947;48.834;9.132;2022-12-11T04:01:03;97619.50;;;-0.21;89.03
15694;BME280;7947;48.834;9.132;2022-12-11T04:04:07;97612.59;;;-0.16;88.84
15694;BME280;7947;48.834;9.132;2022-12-11T04:07:10;97614.53;;;-0.11;87.92
15694;BME280;7947;48.834;9.132;2022-12-11T04:10:12;97609.28;;;-0.11;87.88
15694;BME280;7947;48.834;9.132;2022-12-11T04:13:15;97600.50;;;-0.05;88.12
15694;BME280;7947;48.834;9.132;2022-12-11T04:16:18;97597.22;;;-0.01;88.46
15694;BME280;7947;48.834;9.132;2022-12-11T04:19:21;97595.81;;;-0.03;88.03
15694;BME280;7947;48.834;9.132;2022-12-11T04:22:42;97582.94;;;0.07;88.31
15694;BME280;7947;48.834;9.132;2022-12-11T04:26:04;97586.16;;;0.09;87.54
15694;BME280;7947;48.834;9.132;2022-12-11T04:29:07;97580.94;;;0.03;87.50
15694;BME280;7947;48.834;9.132;2022-12-11T04:32:10;97577.13;;;-0.02;88.37
15694;BME280;7947;48.834;9.132;2022-12-11T04:35:14;97572.03;;;0.04;87.81
15694;BME280;7947;48.834;9.132;2022-12-11T04:38:17;97571.16;;;0.10;88.00
15694;BME280;7947;48.834;9.132;2022-12-11T04:41:20;97559.25;;;0.19;87.99
15694;BME280;7947;48.834;9.132;2022-12-11T04:44:22;97558.38;;;0.25;87.22
15694;BME280;7947;48.834;9.132;2022-12-11T04:47:25;97560.69;;;0.33;86.63
15694;BME280;7947;48.834;9.132;2022-12-11T04:50:29;97562.06;;;0.35;85.76
15694;BME280;7947;48.834;9.132;2022-12-11T04:53:32;97558.41;;;0.36;85.73
15694;BME280;7947;48.834;9.132;2022-12-11T04:56:35;97560.78;;;0.26;85.49
15694;BME280;7947;48.834;9.132;2022-12-11T04:59:38;97570.97;;;0.23;86.05
15694;BME280;7947;48.834;9.132;2022-12-11T05:02:41;97573.69;;;0.16;85.57
15694;BME280;7947;48.834;9.132;2022-12-11T05:05:47;97580.56;;;0.17;85.64
15694;BME280;7947;48.834;9.132;2022-12-11T05:08:50;97570.97;;;0.23;85.26
15694;BME280;7947;48.834;9.132;2022-12-11T05:11:54;97570.03;;;0.17;84.74
15694;BME280;7947;48.834;9.132;2022-12-11T05:14:56;97555.47;;;0.15;85.40
15694;BME280;7947;48.834;9.132;2022-12-11T05:17:59;97564.47;;;0.07;85.42
15694;BME280;7947;48.834;9.132;2022-12-11T05:21:05;97575.69;;;0.03;85.47
15694;BME280;7947;48.834;9.132;2022-12-11T05:24:08;97578.09;;;0.04;85.09
15694;BME280;7947;48.834;9.132;2022-12-11T05:27:11;97583.88;;;-0.06;84.80
15694;BME280;7947;48.834;9.132;2022-12-11T05:30:14;97581.81;;;-0.04;83.86
15694;BME280;7947;48.834;9.132;2022-12-11T05:33:17;97584.47;;;-0.04;83.47
15694;BME280;7947;48.834;9.132;2022-12-11T05:36:23;97564.19;;;-0.21;83.88
15694;BME280;7947;48.834;9.132;2022-12-11T05:39:26;97581.25;;;-0.24;83.38
15694;BME280;7947;48.834;9.132;2022-12-11T05:42:29;97578.03;;;-0.26;83.92
15694;BME280;7947;48.834;9.132;2022-12-11T05:45:31;97580.00;;;-0.39;83.77
15694;BME280;7947;48.834;9.132;2022-12-11T05:48:35;97577.59;;;-0.41;83.37
15694;BME280;7947;48.834;9.132;2022-12-11T05:51:39;97573.81;;;-0.45;81.98
15694;BME280;7947;48.834;9.132;2022-12-11T05:54:43;97570.41;;;-0.52;81.24
15694;BME280;7947;48.834;9.132;2022-12-11T05:57:46;97565.06;;;-0.63;79.83
15694;BME280;7947;48.834;9.132;2022-12-11T06:00:48;97570.50;;;-0.83;78.95
15694;BME280;7947;48.834;9.132;2022-12-11T06:03:52;97576.53;;;-1.01;79.85
15694;BME280;7947;48.834;9.132;2022-12-11T06:06:57;97570.38;;;-1.13;79.83
15694;BME280;7947;48.834;9.132;2022-12-11T06:09:59;97576.09;;;-1.22;80.32
15694;BME280;7947;48.834;9.132;2022-12-11T06:13:02;97571.69;;;-1.28;82.27
15694;BME280;7947;48.834;9.132;2022-12-11T06:16:06;97574.97;;;-1.33;84.27
15694;BME280;7947;48.834;9.132;2022-12-11T06:19:12;97570.66;;;-1.27;82.36
15694;BME280;7947;48.834;9.132;2022-12-11T06:22:16;97561.53;;;-1.49;81.02
15694;BME280;7947;48.834;9.132;2022-12-11T06:25:19;97561.19;;;-1.59;80.92
15694;BME280;7947;48.834;9.132;2022-12-11T06:28:21;97563.22;;;-1.61;81.87
15694;BME280;7947;48.834;9.132;2022-12-11T06:31:24;97562.59;;;-1.57;79.35
15694;BME280;7947;48.834;9.132;2022-12-11T06:34:27;97559.03;;;-1.69;80.18
15694;BME280;7947;48.834;9.132;2022-12-11T06:37:31;97554.00;;;-1.70;82.13
15694;BME280;7947;48.834;9.132;2022-12-11T06:40:33;97554.63;;;-1.82;81.62
15694;BME280;7947;48.834;9.132;2022-12-11T06:43:38;97549.59;;;-1.83;82.52
15694;BME280;7947;48.834;9.132;2022-12-11T06:46:41;97549.75;;;-1.78;81.72
15694;BME280;7947;48.834;9.132;2022-12-11T06:49:44;97555.81;;;-1.77;81.31
15694;BME280;7947;48.834;9.132;2022-12-11T06:52:48;97556.88;;;-1.85;79.94
15694;BME280;7947;48.834;9.132;2022-12-11T06:55:54;97565.78;;;-1.86;79.26
15694;BME280;7947;48.834;9.132;2022-12-11T06:58:59;97571.44;;;-1.89;80.63
15694;BME280;7947;48.834;9.132;2022-12-11T07:02:10;97576.31;;;-1.93;82.16
15694;BME280;7947;48.834;9.132;2022-12-11T07:05:16;97582.78;;;-1.95;82.29
15694;BME280;7947;48.834;9.132;2022-12-11T07:08:23;97594.31;;;-1.96;83.88
15694;BME280;7947;48.834;9.132;2022-12-11T07:11:28;97595.53;;;-1.92;83.44
15694;BME280;7947;48.834;9.132;2022-12-11T07:14:33;97593.50;;;-1.90;83.27
15694;BME280;7947;48.834;9.132;2022-12-11T07:17:36;97583.78;;;-1.90;83.25
15694;BME280;7947;48.834;9.132;2022-12-11T07:20:41;97585.78;;;-1.85;83.34
15694;BME280;7947;48.834;9.132;2022-12-11T07:23:47;97587.19;;;-1.83;84.75
15694;BME280;7947;48.834;9.132;2022-12-11T07:26:51;97582.69;;;-1.69;84.84
15694;BME280;7947;48.834;9.132;2022-12-11T07:29:54;97583.22;;;-1.60;85.51
15694;BME280;7947;48.834;9.132;2022-12-11T07:32:58;97581.59;;;-1.55;84.93
15694;BME280;7947;48.834;9.132;2022-12-11T07:36:01;97583.09;;;-1.41;85.47
15694;BME280;7947;48.834;9.132;2022-12-11T07:39:07;97593.75;;;-1.29;86.01
15694;BME280;7947;48.834;9.132;2022-12-11T07:42:11;97588.56;;;-1.11;87.49
15694;BME280;7947;48.834;9.132;2022-12-11T07:45:15;97586.84;;;-0.99;87.66
15694;BME280;7947;48.834;9.132;2022-12-11T07:48:20;97593.72;;;-0.98;87.23
15694;BME280;7947;48.834;9.132;2022-12-11T07:51:26;97592.03;;;-0.93;87.88
15694;BME280;7947;48.834;9.132;2022-12-11T07:54:32;97594.03;;;-0.88;87.52
15694;BME280;7947;48.834;9.132;2022-12-11T07:57:37;97583.50;;;-0.88;87.81
15694;BME280;7947;48.834;9.132;2022-12-11T08:00:44;97580.25;;;-0.83;87.70
15694;BME280;7947;48.834;9.132;2022-12-11T08:03:50;97578.78;;;-0.79;87.37
15694;BME280;7947;48.834;9.132;2022-12-11T08:06:54;97584.16;;;-0.68;88.00
15694;BME280;7947;48.834;9.132;2022-12-11T08:10:01;97584.44;;;-0.58;87.78
15694;BME280;7947;48.834;9.132;2022-12-11T08:13:05;97585.63;;;-0.54;87.84
15694;BME280;7947;48.834;9.132;2022-12-11T08:16:12;97573.81;;;-0.45;87.50
15694;BME280;7947;48.834;9.132;2022-12-11T08:19:17;97575.25;;;-0.31;86.43
15694;BME280;7947;48.834;9.132;2022-12-11T08:22:22;97578.47;;;-0.29;86.66
15694;BME280;7947;48.834;9.132;2022-12-11T08:25:29;97575.03;;;-0.11;86.24
15694;BME280;7947;48.834;9.132;2022-12-11T08:28:34;97575.84;;;-0.11;85.92
15694;BME280;7947;48.834;9.132;2022-12-11T08:31:40;97577.53;;;-0.16;86.47
15694;BME280;7947;48.834;9.132;2022-12-11T08:34:45;97588.50;;;-0.19;85.87
15694;BME280;7947;48.834;9.132;2022-12-11T08:37:50;97589.53;;;-0.20;86.29
15694;BME280;7947;48.834;9.132;2022-12-11T08:40:57;97583.63;;;-0.16;86.38
15694;BME280;7947;48.834;9.132;2022-12-11T08:44:02;97587.25;;;-0.17;86.62
15694;BME280;7947;48.834;9.132;2022-12-11T08:47:07;97590.19;;;-0.07;86.74
15694;BME280;7947;48.834;9.132;2022-12-11T08:50:12;97589.16;;;-0.06;86.71
15694;BME280;7947;48.834;9.132;2022-12-11T08:53:18;97584.91;;;-0.07;86.72
15694;BME280;7947;48.834;9.132;2022-12-11T08:56:24;97591.66;;;-0.11;87.06
15694;BME280;7947;48.834;9.132;2022-12-11T08:59:30;97590.13;;;0.00;87.52
15694;BME280;7947;48.834;9.132;2022-12-11T09:02:35;97586.09;;;-0.03;87.04
15694;BME280;7947;48.834;9.132;2022-12-11T09:05:40;97571.56;;;0.07;87.42
15694;BME280;7947;48.834;9.132;2022-12-11T09:08:47;97567.59;;;0.16;87.36
15694;BME280;7947;48.834;9.132;2022-12-11T09:11:55;97572.91;;;0.27;86.90
15694;BME280;7947;48.834;9.132;2022-12-11T09:15:02;97566.81;;;0.45;86.24
15694;BME280;7947;48.834;9.132;2022-12-11T09:18:06;97563.03;;;0.52;85.41
15694;BME280;7947;48.834;9.132;2022-12-11T09:21:12;97566.28;;;0.66;84.10
15694;BME280;7947;48.834;9.132;2022-12-11T09:24:19;97560.13;;;0.83;83.64
15694;BME280;7947;48.834;9.132;2022-12-11T09:27:26;97560.28;;;0.88;82.82
15694;BME280;7947;48.834;9.132;2022-12-11T09:30:30;97567.03;;;0.84;83.12
15694;BME280;7947;48.834;9.132;2022-12-11T09:33:36;97564.28;;;0.91;83.50
15694;BME280;7947;48.834;9.132;2022-12-11T09:36:41;97558.66;;;0.87;83.20
15694;BME280;7947;48.834;9.132;2022-12-11T09:39:46;97559.44;;;0.76;84.10
15694;BME280;7947;48.834;9.132;2022-12-11T09:42:54;97562.63;;;0.67;84.43
15694;BME280;7947;48.834;9.132;2022-12-11T09:46:02;97556.19;;;0.63;84.37
15694;BME280;7947;48.834;9.132;2022-12-11T09:49:18;97562.91;;;0.77;84.22
15694;BME280;7947;48.834;9.132;2022-12-11T09:52:31;97559.47;;;0.88;84.13
15694;BME280;7947;48.834;9.132;2022-12-11T09:55:45;97555.25;;;0.99;83.47
15694;BME280;7947;48.834;9.132;2022-12-11T09:59:00;97551.31;;;0.89;83.69
15694;BME280;7947;48.834;9.132;2022-12-11T10:02:20;97550.31;;;1.02;82.73
15694;BME280;7947;48.834;9.132;2022-12-11T10:05:32;97555.25;;;1.10;81.39
15694;BME280;7947;48.834;9.132;2022-12-11T10:08:45;97545.03;;;1.14;81.39
15694;BME280;7947;48.834;9.132;2022-12-11T10:12:01;97545.72;;;1.09;81.66
15694;BME280;7947;48.834;9.132;2022-12-11T10:15:29;97548.03;;;1.17;81.77
15694;BME280;7947;48.834;9.132;2022-12-11T10:18:38;97545.84;;;1.26;80.81
15694;BME280;7947;48.834;9.132;2022-12-11T10:21:44;97540.78;;;1.24;80.73
15694;BME280;7947;48.834;9.132;2022-12-11T10:24:54;97526.78;;;1.24;80.97
15694;BME280;7947;48.834;9.132;2022-12-11T10:28:14;97523.59;;;1.22;80.75
15694;BME280;7947;48.834;9.132;2022-12-11T10:31:27;97518.63;;;1.14;80.10
15694;BME280;7947;48.834;9.132;2022-12-11T10:34:38;97518.75;;;1.19;80.50
15694;BME280;7947;48.834;9.132;2022-12-11T10:37:44;97515.09;;;1.20;80.14
15694;BME280;7947;48.834;9.132;2022-12-11T10:40:52;97515.88;;;1.20;79.27
15694;BME280;7947;48.834;9.132;2022-12-11T10:44:00;97523.69;;;1.15;80.36
15694;BME280;7947;48.834;9.132;2022-12-11T10:47:10;97510.81;;;1.19;79.80
15694;BME280;7947;48.834;9.132;2022-12-11T10:50:23;97508.66;;;1.27;79.92
15694;BME280;7947;48.834;9.132;2022-12-11T10:53:28;97504.03;;;1.34;79.63
15694;BME280;7947;48.834;9.132;2022-12-11T10:56:34;97490.00;;;1.45;79.18
15694;BME280;7947;48.834;9.132;2022-12-11T10:59:44;97487.94;;;1.47;78.03
15694;BME280;7947;48.834;9.132;2022-12-11T11:02:52;97495.63;;;1.60;77.43
15694;BME280;7947;48.834;9.132;2022-12-11T11:06:02;97493.06;;;1.65;77.03
15694;BME280;7947;48.834;9.132;2022-12-11T11:09:34;97494.09;;;1.76;76.81
15694;BME280;7947;48.834;9.132;2022-12-11T11:12:41;97488.84;;;1.93;75.95
15694;BME280;7947;48.834;9.132;2022-12-11T11:15:46;97490.31;;;2.00;75.73
15694;BME280;7947;48.834;9.132;2022-12-11T11:18:54;97483.66;;;1.98;74.79
15694;BME280;7947;48.834;9.132;2022-12-11T11:22:01;97478.16;;;1.99;74.28
15694;BME280;7947;48.834;9.132;2022-12-11T11:25:16;97477.16;;;2.17;74.25
15694;BME280;7947;48.834;9.132;2022-12-11T11:28:23;97478.69;;;2.29;74.24
15694;BME280;7947;48.834;9.132;2022-12-11T11:31:33;97473.41;;;2.29;73.28
15694;BME280;7947;48.834;9.132;2022-12-11T11:34:40;97472.75;;;2.22;74.58
15694;BME280;7947;48.834;9.132;2022-12-11T11:37:54;97468.81;;;2.08;76.23
15694;BME280;7947;48.834;9.132;2022-12-11T11:41:09;97471.50;;;1.97;77.48
15694;BME280;7947;48.834;9.132;2022-12-11T11:44:20;97470.47;;;1.86;78.05
15694;BME280;7947;48.834;9.132;2022-12-11T11:47:33;97467.66;;;1.76;77.89
15694;BME280;7947;48.834;9.132;2022-12-11T11:50:44;97460.19;;;1.73;77.39
15694;BME280;7947;48.834;9.132;2022-12-11T11:53:54;97455.22;;;1.76;76.52
15694;BME280;7947;48.834;9.132;2022-12-11T11:57:04;97451.09;;;1.80;76.19
15694;BME280;7947;48.834;9.132;2022-12-11T12:00:19;97455.19;;;1.88;76.98
15694;BME280;7947;48.834;9.132;2022-12-11T12:03:24;97457.66;;;1.78;76.05
15694;BME280;7947;48.834;9.132;2022-12-11T12:06:54;97453.84;;;1.86;76.43
15694;BME280;7947;48.834;9.132;2022-12-11T12:10:09;97449.69;;;1.90;76.14
15694;BME280;7947;48.834;9.132;2022-12-11T12:13:22;97449.06;;;1.99;76.62
15694;BME280;7947;48.834;9.132;2022-12-11T12:16:56;97457.47;;;1.96;75.89
15694;BME280;7947;48.834;9.132;2022-12-11T12:20:12;97455.94;;;2.00;77.43
15694;BME280;7947;48.834;9.132;2022-12-11T12:23:34;97453.41;;;2.05;76.85
15694;BME280;7947;48.834;9.132;2022-12-11T12:26:45;97455.25;;;2.05;76.43
15694;BME280;7947;48.834;9.132;2022-12-11T12:29:59;97449.47;;;2.08;78.12
15694;BME280;7947;48.834;9.132;2022-12-11T12:33:20;97447.13;;;1.95;77.78
15694;BME280;7947;48.834;9.132;2022-12-11T12:36:37;97446.06;;;1.96;78.01
15694;BME280;7947;48.834;9.132;2022-12-11T12:39:53;97447.22;;;2.00;78.34
15694;BME280;7947;48.834;9.132;2022-12-11T12:43:18;97443.09;;;1.92;78.79
15694;BME280;7947;48.834;9.132;2022-12-11T12:46:39;97438.00;;;2.02;78.74
15694;BME280;7947;48.834;9.132;2022-12-11T12:49:50;97436.69;;;2.33;78.80
15694;BME280;7947;48.834;9.132;2022-12-11T12:52:57;97431.50;;;2.38;77.36
15694;BME280;7947;48.834;9.132;2022-12-11T12:56:04;97433.50;;;2.31;77.48
15694;BME280;7947;48.834;9.132;2022-12-11T12:59:19;97435.44;;;2.35;76.35
15694;BME280;7947;48.834;9.132;2022-12-11T13:02:25;97432.47;;;2.32;75.93
15694;BME280;7947;48.834;9.132;2022-12-11T13:05:33;97429.50;;;2.28;75.73
15694;BME280;7947;48.834;9.132;2022-12-11T13:08:40;97426.84;;;2.28;75.77
15694;BME280;7947;48.834;9.132;2022-12-11T13:11:48;97431.72;;;2.36;76.37
15694;BME280;7947;48.834;9.132;2022-12-11T13:14:55;97429.28;;;2.63;75.01
15694;BME280;7947;48.834;9.132;2022-12-11T13:18:02;97426.34;;;3.57;72.90
15694;BME280;7947;48.834;9.132;2022-12-11T13:21:26;97418.66;;;3.83;68.79
15694;BME280;7947;48.834;9.132;2022-12-11T13:24:32;97422.19;;;3.66;68.88
15694;BME280;7947;48.834;9.132;2022-12-11T13:27:39;97425.59;;;3.40;69.23
15694;BME280;7947;48.834;9.132;2022-12-11T13:30:56;97434.81;;;3.16;71.33
15694;BME280;7947;48.834;9.132;2022-12-11T13:34:14;97428.69;;;4.02;69.51
15694;BME280;7947;48.834;9.132;2022-12-11T13:37:24;97431.66;;;5.58;64.68
15694;BME280;7947;48.834;9.132;2022-12-11T13:40:36;97423.69;;;6.95;59.03
15694;BME280;7947;48.834;9.132;2022-12-11T13:43:45;97411.84;;;8.05;55.75
15694;BME280;7947;48.834;9.132;2022-12-11T13:46:52;97413.84;;;8.95;50.98
15694;BME280;7947;48.834;9.132;2022-12-11T13:50:11;97414.78;;;9.38;49.57
15694;BME280;7947;48.834;9.132;2022-12-11T13:53:19;97411.81;;;9.40;48.33
15694;BME280;7947;48.834;9.132;2022-12-11T13:56:24;97415.78;;;9.19;47.53
15694;BME280;7947;48.834;9.132;2022-12-11T13:59:32;97415.59;;;7.94;49.93
15694;BME280;7947;48.834;9.132;2022-12-11T14:02:39;97425.81;;;6.93;53.43
15694;BME280;7947;48.834;9.132;2022-12-11T14:05:45;97434.53;;;5.98;56.01
15694;BME280;7947;48.834;9.132;2022-12-11T14:08:52;97436.47;;;5.61;58.56
15694;BME280;7947;48.834;9.132;2022-12-11T14:12:01;97439.19;;;5.76;58.72
15694;BME280;7947;48.834;9.132;2022-12-11T14:15:15;97447.75;;;5.31;59.70
15694;BME280;7947;48.834;9.132;2022-12-11T14:18:22;97445.41;;;4.93;59.95
15694;BME280;7947;48.834;9.132;2022-12-11T14:21:28;97440.22;;;4.44;62.17
15694;BME280;7947;48.834;9.132;2022-12-11T14:24:33;97440.97;;;4.08;64.47
15694;BME280;7947;48.834;9.132;2022-12-11T14:27:47;97442.78;;;3.59;65.42
15694;BME280;7947;48.834;9.132;2022-12-11T14:30:55;97458.09;;;3.14;67.10
15694;BME280;7947;48.834;9.132;2022-12-11T14:34:03;97457.34;;;2.81;68.94
15694;BME280;7947;48.834;9.132;2022-12-11T14:37:15;97455.31;;;2.54;70.37
15694;BME280;7947;48.834;9.132;2022-12-11T14:40:24;97466.19;;;2.25;71.33
15694;BME280;7947;48.834;9.132;2022-12-11T14:43:34;97463.75;;;2.07;72.79
15694;BME280;7947;48.834;9.132;2022-12-11T14:46:47;97466.19;;;1.97;73.97
15694;BME280;7947;48.834;9.132;2022-12-11T14:49:56;97466.50;;;1.83;74.37
15694;BME280;7947;48.834;9.132;2022-12-11T14:53:08;97476.50;;;1.81;74.83
15694;BME280;7947;48.834;9.132;2022-12-11T14:56:17;97474.34;;;1.67;76.17
15694;BME280;7947;48.834;9.132;2022-12-11T14:59:23;97469.38;;;1.70;76.42
15694;BME280;7947;48.834;9.132;2022-12-11T15:02:35;97467.13;;;1.62;76.36
15694;BME280;7947;48.834;9.132;2022-12-11T15:05:48;97473.78;;;1.65;76.72
15694;BME280;7947;48.834;9.132;2022-12-11T15:08:53;97473.09;;;1.58;76.50
15694;BME280;7947;48.834;9.132;2022-12-11T15:12:07;97474.28;;;1.50;76.90
15694;BME280;7947;48.834;9.132;2022-12-11T15:15:15;97477.50;;;1.41;77.24
15694;BME280;7947;48.834;9.132;2022-12-11T15:18:25;97473.03;;;1.30;78.00
15694;BME280;7947;48.834;9.132;2022-12-11T15:21:32;97474.66;;;1.19;78.46
15694;BME280;7947;48.834;9.132;2022-12-11T15:24:41;97480.63;;;1.26;80.02
15694;BME280;7947;48.834;9.132;2022-12-11T15:27:49;97477.19;;;1.26;80.65
15694;BME280;7947;48.834;9.132;2022-12-11T15:30:57;97485.44;;;1.29;81.24
15694;BME280;7947;48.834;9.132;2022-12-11T15:34:21;97490.50;;;1.31;81.03
15694;BME280;7947;48.834;9.132;2022-12-11T15:37:28;97488.53;;;1.38;81.25
15694;BME280;7947;48.834;9.132;2022-12-11T15:40:34;97488.53;;;1.38;81.22
15694;BME280;7947;48.834;9.132;2022-12-11T15:43:39;97490.38;;;1.37;80.58
15694;BME280;7947;48.834;9.132;2022-12-11T15:46:44;97495.19;;;1.40;80.00
15694;BME280;7947;48.834;9.132;2022-12-11T15:49:52;97494.38;;;1.40;80.33
15694;BME280;7947;48.834;9.132;2022-12-11T15:52:58;97498.88;;;1.39;79.94
15694;BME280;7947;48.834;9.132;2022-12-11T15:56:03;97497.16;;;1.45;79.98
15694;BME280;7947;48.834;9.132;2022-12-11T15:59:09;97506.81;;;1.39;80.11
15694;BME280;7947;48.834;9.132;2022-12-11T16:02:15;97500.00;;;1.43;80.79
15694;BME280;7947;48.834;9.132;2022-12-11T16:05:24;97510.47;;;1.38;80.83
15694;BME280;7947;48.834;9.132;2022-12-11T16:08:30;97508.97;;;1.42;80.91
15694;BME280;7947;48.834;9.132;2022-12-11T16:11:40;97504.84;;;1.35;81.42
15694;BME280;7947;48.834;9.132;2022-12-11T16:14:46;97511.63;;;1.31;81.36
15694;BME280;7947;48.834;9.132;2022-12-11T16:17:59;97506.69;;;1.34;81.71
15694;BME280;7947;48.834;9.132;2022-12-11T16:21:08;97508.06;;;1.37;82.01
15694;BME280;7947;48.834;9.132;2022-12-11T16:24:19;97509.91;;;1.36;81.82
15694;BME280;7947;48.834;9.132;2022-12-11T16:27:26;97504.72;;;1.30;82.04
15694;BME280;7947;48.834;9.132;2022-12-11T16:30:33;97497.75;;;1.24;82.71
15694;BME280;7947;48.834;9.132;2022-12-11T16:33:40;97500.97;;;1.14;82.95
15694;BME280;7947;48.834;9.132;2022-12-11T16:36:48;97505.69;;;1.12;83.12
15694;BME280;7947;48.834;9.132;2022-12-11T16:39:53;97496.72;;;1.02;83.24
15694;BME280;7947;48.834;9.132;2022-12-11T16:42:59;97505.88;;;0.87;83.64
15694;BME280;7947;48.834;9.132;2022-12-11T16:46:06;97502.44;;;0.87;84.02
15694;BME280;7947;48.834;9.132;2022-12-11T16:49:12;97495.66;;;0.79;83.62
15694;BME280;7947;48.834;9.132;2022-12-11T16:52:18;97498.41;;;0.73;84.29
15694;BME280;7947;48.834;9.132;2022-12-11T16:55:23;97497.94;;;0.76;83.65